createdAt,value
2023-03-13T00:01:10.219Z,79.08
2023-03-13T00:06:16.780Z,78.93
2023-03-13T00:11:22.325Z,78.75
2023-03-13T00:16:29.692Z,78.75
2023-03-13T00:21:37.600Z,79.00
2023-03-13T00:26:43.081Z,79.17
2023-03-13T00:31:48.656Z,79.24
2023-03-13T00:36:56.157Z,79.53
2023-03-13T00:42:04.024Z,79.75
2023-03-13T00:47:09.696Z,79.97
2023-03-13T00:52:15.279Z,80.28
2023-03-13T00:57:20.739Z,80.45
2023-03-13T01:02:26.379Z,80.34
2023-03-13T01:07:32.086Z,80.47
2023-03-13T01:12:37.936Z,80.21
2023-03-13T01:17:45.156Z,79.96
2023-03-13T01:22:54.410Z,79.90
2023-03-13T01:27:59.917Z,79.88
2023-03-13T01:33:06.916Z,79.81
2023-03-13T01:38:12.558Z,79.68
2023-03-13T01:43:26.936Z,79.87
2023-03-13T01:48:42.051Z,79.90
2023-03-13T01:53:50.070Z,79.81
2023-03-13T01:58:59.353Z,79.54
2023-03-13T02:04:06.998Z,79.31
2023-03-13T02:09:16.013Z,79.32
2023-03-13T02:14:25.696Z,79.11
2023-03-13T02:19:37.754Z,79.20
2023-03-13T02:24:51.512Z,79.40
2023-03-13T02:29:57.645Z,79.39
2023-03-13T02:35:10.201Z,79.36
2023-03-13T02:40:21.350Z,79.34
2023-03-13T02:45:25.783Z,79.01
2023-03-13T02:50:32.700Z,79.30
2023-03-13T02:55:41.249Z,79.29
2023-03-13T03:00:47.946Z,79.37
2023-03-13T03:05:55.536Z,79.58
2023-03-13T03:11:01.588Z,80.07
2023-03-13T03:16:12.739Z,80.46
2023-03-13T03:21:16.769Z,80.46
2023-03-13T03:26:22.563Z,80.45
2023-03-13T03:31:30.604Z,80.42
2023-03-13T03:36:36.283Z,80.43
2023-03-13T03:41:41.612Z,80.53
2023-03-13T03:46:47.382Z,80.54
2023-03-13T03:51:53.664Z,80.70
2023-03-13T03:57:04.110Z,80.87
2023-03-13T04:02:10.210Z,81.18
2023-03-13T04:07:15.952Z,81.34
2023-03-13T04:12:22.553Z,81.42
2023-03-13T04:17:31.057Z,81.43
2023-03-13T04:22:37.125Z,81.33
2023-03-13T04:27:43.242Z,81.76
2023-03-13T04:32:51.146Z,82.73
2023-03-13T04:38:06.824Z,83.70
2023-03-13T04:43:41.789Z,84.78
2023-03-13T04:49:08.930Z,85.77
2023-03-13T04:54:34.884Z,86.61
2023-03-13T04:59:53.374Z,87.98
2023-03-13T05:05:18.105Z,88.59
2023-03-13T05:10:48.918Z,89.91
2023-03-13T05:16:08.046Z,90.38
2023-03-13T05:21:32.491Z,90.57
2023-03-13T05:27:04.286Z,91.35
2023-03-13T05:32:15.937Z,91.73
2023-03-13T05:37:45.607Z,92.06
2023-03-13T05:43:09.395Z,92.76
2023-03-13T05:48:42.926Z,93.16
2023-03-13T05:54:15.660Z,93.27
2023-03-13T05:59:40.688Z,94.05
2023-03-13T06:05:06.700Z,94.47
2023-03-13T06:10:13.723Z,94.80
2023-03-13T06:15:19.731Z,95.60
2023-03-13T06:20:34.094Z,95.89
2023-03-13T06:25:39.527Z,96.78
2023-03-13T06:30:45.422Z,97.57
2023-03-13T06:35:56.697Z,98.44
2023-03-13T06:41:02.334Z,99.23
2023-03-13T06:46:11.288Z,99.81
2023-03-13T06:51:18.726Z,100.00
2023-03-13T06:56:24.790Z,100.00
2023-03-13T07:01:30.637Z,100.00
2023-03-13T07:06:36.128Z,100.00
2023-03-13T07:11:41.812Z,100.00
2023-03-13T07:16:47.577Z,100.00
2023-03-13T07:21:53.403Z,100.00
2023-03-13T07:27:07.220Z,100.00
2023-03-13T07:32:13.342Z,100.00
2023-03-13T07:37:18.728Z,100.00
2023-03-13T07:42:24.362Z,100.00
2023-03-13T07:47:31.050Z,100.00
2023-03-13T07:52:36.832Z,100.00
2023-03-13T07:57:42.267Z,100.00
2023-03-13T08:02:47.835Z,100.00
2023-03-13T08:07:53.480Z,100.00
2023-03-13T08:12:59.027Z,100.00
2023-03-13T08:18:04.818Z,99.66
2023-03-13T08:23:10.328Z,98.84
2023-03-13T08:28:15.744Z,96.97
2023-03-13T08:33:21.236Z,94.77
2023-03-13T08:38:26.699Z,93.25
2023-03-13T08:43:32.135Z,93.41
2023-03-13T08:48:37.887Z,93.39
2023-03-13T08:53:44.563Z,93.44
2023-03-13T08:58:53.512Z,93.37
2023-03-13T09:04:03.419Z,93.62
2023-03-13T09:09:10.918Z,93.81
2023-03-13T09:14:16.414Z,93.82
2023-03-13T09:19:21.906Z,91.19
2023-03-13T09:24:27.633Z,87.37
2023-03-13T09:29:33.378Z,85.35
2023-03-13T09:34:39.667Z,84.14
2023-03-13T09:39:45.217Z,82.22
2023-03-13T09:44:55.801Z,79.20
2023-03-13T09:50:10.225Z,77.71
2023-03-13T09:55:23.081Z,75.95
2023-03-13T10:00:34.358Z,74.81
2023-03-13T10:05:46.406Z,73.01
2023-03-13T10:10:57.652Z,74.07
2023-03-13T10:16:04.819Z,72.53
2023-03-13T10:21:17.485Z,72.12
2023-03-13T10:26:27.452Z,71.39
2023-03-13T10:31:36.465Z,72.03
2023-03-13T10:36:45.313Z,72.56
2023-03-13T10:41:56.495Z,72.76
2023-03-13T10:47:02.598Z,73.23
2023-03-13T10:52:33.068Z,74.12
2023-03-13T10:57:41.193Z,75.42
2023-03-13T11:02:46.906Z,77.15
2023-03-13T11:07:53.598Z,77.54
2023-03-13T11:12:59.765Z,77.36
2023-03-13T11:18:15.795Z,76.42
2023-03-13T11:23:27.778Z,75.92
2023-03-13T11:28:45.986Z,74.78
2023-03-13T11:33:59.736Z,73.69
2023-03-13T11:39:19.815Z,72.51
2023-03-13T11:44:31.818Z,70.79
2023-03-13T11:49:58.002Z,69.46
2023-03-13T11:55:23.851Z,67.13
2023-03-13T12:00:36.850Z,63.58
2023-03-13T12:05:51.670Z,62.19
2023-03-13T12:11:09.638Z,62.34
2023-03-13T12:16:21.199Z,62.45
2023-03-13T12:21:32.515Z,62.63
2023-03-13T12:26:39.393Z,62.36
2023-03-13T12:31:50.785Z,63.50
2023-03-13T12:37:06.819Z,65.35
2023-03-13T12:42:23.694Z,67.31
2023-03-13T12:47:34.373Z,68.61
2023-03-13T12:53:21.028Z,71.15
2023-03-13T12:58:44.348Z,73.50
2023-03-13T13:03:56.772Z,75.51
2023-03-13T13:09:15.544Z,77.40
2023-03-13T13:14:52.830Z,79.45
2023-03-13T13:19:58.657Z,81.74
2023-03-13T13:25:28.774Z,84.04
2023-03-13T13:30:35.244Z,86.53
2023-03-13T13:35:41.162Z,88.81
2023-03-13T13:41:00.649Z,90.27
2023-03-13T13:46:18.798Z,92.13
2023-03-13T13:51:28.763Z,94.41
2023-03-13T13:56:52.269Z,96.89
2023-03-13T14:02:25.115Z,99.43
2023-03-13T14:07:42.462Z,100.00
2023-03-13T14:12:52.184Z,100.00
2023-03-13T14:18:01.052Z,100.00
2023-03-13T14:23:08.416Z,100.00
2023-03-13T14:28:23.099Z,100.00
2023-03-13T14:33:29.058Z,100.00
2023-03-13T14:38:35.193Z,100.00
2023-03-13T14:43:44.016Z,100.00
2023-03-13T14:48:49.741Z,100.00
2023-03-13T14:54:00.458Z,100.00
2023-03-13T14:59:14.928Z,100.00
2023-03-13T15:04:54.411Z,100.00
2023-03-13T15:10:00.833Z,100.00
2023-03-13T15:15:10.299Z,100.00
2023-03-13T15:20:19.058Z,100.00
2023-03-13T15:25:24.753Z,100.00
2023-03-13T15:30:31.065Z,100.00
2023-03-13T15:35:36.654Z,100.00
2023-03-13T15:40:42.701Z,100.00
2023-03-13T15:45:53.699Z,100.00
2023-03-13T15:51:01.535Z,100.00
2023-03-13T15:56:14.495Z,100.00
2023-03-13T16:01:22.526Z,100.00
2023-03-13T16:06:31.600Z,100.00
2023-03-13T16:11:37.327Z,100.00
2023-03-13T16:16:43.014Z,100.00
2023-03-13T16:21:49.666Z,100.00
2023-03-13T16:26:55.070Z,100.00
2023-03-13T16:32:00.957Z,100.00
2023-03-13T16:37:16.273Z,100.00
2023-03-13T16:42:22.252Z,100.00
2023-03-13T16:47:29.271Z,100.00
2023-03-13T16:52:35.099Z,100.00
2023-03-13T16:57:40.610Z,100.00
2023-03-13T17:02:46.627Z,100.00
2023-03-13T17:07:53.194Z,100.00
2023-03-13T17:12:58.994Z,100.00
2023-03-13T17:18:10.333Z,100.00
2023-03-13T17:23:16.206Z,100.00
2023-03-13T17:28:21.989Z,100.00
2023-03-13T17:33:27.866Z,100.00
2023-03-13T17:38:33.560Z,100.00
2023-03-13T17:43:39.387Z,100.00
2023-03-13T17:48:45.429Z,100.00
2023-03-13T17:53:52.132Z,100.00
2023-03-13T17:58:59.684Z,100.00
2023-03-13T18:04:05.239Z,100.00
2023-03-13T18:09:15.855Z,100.00
2023-03-13T18:14:22.307Z,100.00
2023-03-13T18:19:28.121Z,100.00
2023-03-13T18:24:33.815Z,100.00
2023-03-13T18:29:39.546Z,100.00
2023-03-13T18:34:45.513Z,100.00
2023-03-13T18:39:51.382Z,99.45
2023-03-13T18:44:56.856Z,99.01
2023-03-13T18:50:02.790Z,98.62
2023-03-13T18:55:09.864Z,97.17
2023-03-13T19:00:20.808Z,96.46
2023-03-13T19:05:26.420Z,95.79
2023-03-13T19:10:32.907Z,95.02
2023-03-13T19:15:38.986Z,94.17
2023-03-13T19:20:44.575Z,93.79
2023-03-13T19:25:50.181Z,92.72
2023-03-13T19:30:55.609Z,91.95
2023-03-13T19:36:01.304Z,91.50
2023-03-13T19:41:07.294Z,91.19
2023-03-13T19:46:22.703Z,90.33
2023-03-13T19:51:29.545Z,90.28
2023-03-13T19:56:36.513Z,89.87
2023-03-13T20:01:42.704Z,89.39
2023-03-13T20:06:48.218Z,88.96
2023-03-13T20:11:53.952Z,88.88
2023-03-13T20:16:59.312Z,88.44
2023-03-13T20:22:05.355Z,88.09
2023-03-13T20:27:10.782Z,87.84
2023-03-13T20:32:16.233Z,87.15
2023-03-13T20:37:21.818Z,87.27
2023-03-13T20:42:27.381Z,86.48
2023-03-13T20:47:32.893Z,86.13
2023-03-13T20:52:38.474Z,85.39
2023-03-13T20:57:43.861Z,85.47
2023-03-13T21:02:50.124Z,85.40
2023-03-13T21:07:55.464Z,85.12
2023-03-13T21:13:00.929Z,85.32
2023-03-13T21:18:06.471Z,85.04
2023-03-13T21:23:11.868Z,84.68
2023-03-13T21:28:17.224Z,84.16
2023-03-13T21:33:22.767Z,84.30
2023-03-13T21:38:28.124Z,83.67
2023-03-13T21:43:33.451Z,83.31
2023-03-13T21:48:40.721Z,83.05
2023-03-13T21:53:46.147Z,82.84
2023-03-13T21:58:51.806Z,82.34
2023-03-13T22:03:57.177Z,81.54
2023-03-13T22:09:03.818Z,81.20
2023-03-13T22:14:09.164Z,81.50
2023-03-13T22:19:17.353Z,81.07
2023-03-13T22:24:22.808Z,80.78
2023-03-13T22:29:30.684Z,80.57
2023-03-13T22:34:36.526Z,80.24
2023-03-13T22:39:42.026Z,79.42
2023-03-13T22:44:47.538Z,79.66
2023-03-13T22:49:53.754Z,79.35
2023-03-13T22:54:59.894Z,78.83
2023-03-13T23:00:09.120Z,78.79
2023-03-13T23:05:14.734Z,78.28
2023-03-13T23:10:20.642Z,78.63
2023-03-13T23:15:26.591Z,78.12
2023-03-13T23:20:35.906Z,77.88
2023-03-13T23:25:41.383Z,78.09
2023-03-13T23:30:46.775Z,77.20
2023-03-13T23:35:52.335Z,77.21
2023-03-13T23:40:57.888Z,76.94
2023-03-13T23:46:04.194Z,77.26
2023-03-13T23:51:10.274Z,76.74
2023-03-13T23:56:15.603Z,76.45
